EST,Max TemperatureF,Mean TemperatureF,Min TemperatureF,Max Dew PointF,MeanDew PointF,Min DewpointF,Max Humidity, Mean Humidity, Min Humidity, Max Sea Level PressureIn, Mean Sea Level PressureIn, Min Sea Level PressureIn, Max VisibilityMiles, Mean VisibilityMiles, Min VisibilityMiles, Max Wind SpeedMPH, Mean Wind SpeedMPH, Max Gust SpeedMPH,PrecipitationIn, CloudCover, Events, WindDirDegrees
2012-12-1,52,42,32,44,39,32,100,93,72,30.46,30.40,30.35,10,5,2,7,1,,0.00,3,,17
2012-12-2,59,46,34,53,44,35,100,91,65,30.40,30.27,30.15,10,5,0,8,1,,0.00,6,,181
2012-12-3,72,57,42,57,51,42,100,86,58,30.27,30.21,30.15,10,7,0,5,0,,0.00,2,,252
2012-12-4,74,60,46,57,52,46,100,79,47,30.24,30.16,30.02,10,8,0,8,1,,0.00,5,,191
2012-12-5,64,53,40,52,39,27,85,54,36,30.31,30.14,29.99,10,10,10,15,7,22,0.00,2,,312
2012-12-6,46,37,29,31,26,24,92,67,42,30.40,30.32,30.27,10,10,10,6,2,,0.00,0,,1
2012-12-7,52,42,32,50,40,30,98,83,67,30.26,30.13,29.98,10,10,7,6,1,,0.00,8,,186
2012-12-8,56,52,48,53,51,49,100,97,87,30.03,29.95,29.91,10,5,0,7,1,,0.00,7,,197
2012-12-9,53,51,49,53,51,49,100,99,92,30.19,30.10,29.99,10,4,1,7,2,,0.00,8,,44
2012-12-10,64,57,50,63,57,50,100,97,86,29.98,29.73,29.59,10,4,0,6,1,,0.00,7,,198
2012-12-11,62,50,38,59,38,32,92,70,49,30.23,29.99,29.64,10,10,7,21,8,30,0.00,6,,323
2012-12-12,47,41,35,36,32,28,97,71,49,30.44,30.37,30.23,10,10,10,7,1,,0.00,1,,1
2012-12-13,50,40,30,30,28,23,91,64,36,30.47,30.42,30.36,10,10,10,8,2,,0.00,0,,23
2012-12-14,55,40,26,34,30,26,100,79,40,30.36,30.29,30.22,10,10,7,6,1,,0.00,0,,190
2012-12-15,55,44,32,39,35,32,100,74,44,30.31,30.23,30.15,10,10,10,6,1,,0.00,1,,110
2012-12-16,52,48,45,50,46,38,100,90,74,30.16,29.98,29.85,10,8,3,7,1,,0.00,7,,169
2012-12-17,56,52,50,56,52,50,100,100,98,29.87,29.77,29.56,5,3,0,5,1,,0.00,8,,92
2012-12-18,61,52,41,57,43,32,100,74,45,29.82,29.64,29.53,10,8,0,17,5,36,0.00,3,,267
2012-12-19,54,43,32,39,36,32,100,74,52,30.19,29.97,29.82,10,10,10,15,2,24,0.00,4,,321
2012-12-20,55,43,35,53,38,32,100,83,53,30.22,30.02,29.48,10,9,5,10,2,18,0.00,3,,118
2012-12-21,59,50,40,59,33,23,100,63,47,29.56,29.42,29.26,10,10,3,18,11,32,0.00,7,,266
2012-12-22,45,40,35,27,24,21,62,51,39,30.04,29.83,29.56,10,10,10,24,13,36,0.00,3,,285
2012-12-23,48,38,28,31,24,20,92,63,32,30.08,30.00,29.92,10,10,10,8,4,,0.00,0,,231
2012-12-24,41,34,28,38,33,26,100,92,65,30.11,30.00,29.91,10,7,2,8,1,,0.00,4,,75
2012-12-25,51,42,34,42,37,32,100,83,54,30.27,30.10,29.91,10,7,1,12,2,17,0.00,4,,351
2012-12-26,50,42,34,50,36,29,100,91,70,30.27,29.86,29.38,10,6,2,14,7,25,0.00,8,,33
2012-12-27,43,40,38,40,32,27,100,72,52,30.03,29.73,29.39,10,9,2,20,12,38,0.00,7,,296
2012-12-28,43,38,33,32,30,28,92,71,54,30.16,30.09,30.02,10,10,10,8,4,16,0.00,0,,308
2012-12-29,43,38,34,39,35,30,100,85,65,30.04,29.77,29.58,10,9,1,16,2,29,0.00,7,,305
2012-12-30,42,37,32,30,24,20,66,54,42,30.34,30.12,29.81,10,10,10,22,12,40,0.00,5,,291
2012-12-31,42,36,31,28,25,22,73,59,48,30.34,30.19,30.01,10,10,10,7,3,,0.00,3,,207